• Join FlightAware (Why Join?)
  • Login
  • US Flag 
06:41PM EDT


 

Airport Tracker/Info


-or-


 

Live Flight TrackerFlight Track Log ✈ NRL950 ✈ 25-Sep-2013 ✈ CYVO - CMB2

Flight Track Log - Related Links

Times and Time Zones

All times are in EDT time to prevent confusion due to time zone crossing. See the NRL950 flight status page for this flight to view local times or setup timezone preferences in your user account.

Time Position Orientation Groundspeed Altitude Reporting Facility
EDT Latitude Longitude Course Direction KTS MPH feet Rate Location/Type
10:12AM 49.4381 -78.6231 337° Northwest  Level FlightAware Approximate
10:13AM 49.5404 -78.6890 337° Northwest  Level FlightAware Approximate
10:13AM 48.5833 -77.7667 338° Northwest 310 357 15,000  Level Montreal Center
10:14AM 49.6424 -78.7560 337° Northwest  Level FlightAware Approximate
10:14AM 48.6667 -77.8000 345° North 330 380 16,400  Level Montreal Center
10:15AM 49.7447 -78.8223 338° Northwest  Level FlightAware Approximate
10:15AM 48.7667 -77.8833 331° Northwest 350 403 18,000  Level Montreal Center
10:16AM 49.8472 -78.8876 338° Northwest  Level FlightAware Approximate
10:16AM 48.8500 -77.9333 338° Northwest 350 403 19,400  Level Montreal Center
10:17AM 49.9483 -78.9583 335° Northwest  Level FlightAware Approximate
10:17AM 48.9500 -77.9833 342° North 370 426 20,700  Level Montreal Center
10:18AM 50.0486 -79.0310 338° Northwest  Level FlightAware Approximate
10:18AM 49.0500 -78.0667 331° Northwest 370 426 22,000  Level Montreal Center
10:19AM 49.1167 -78.1167 334° Northwest 340 391 23,300 1,200 Climbing Montreal Center
10:20AM 49.2333 -78.2000 335° Northwest 400 460 24,400 1,020 Climbing Montreal Center
10:21AM 49.3333 -78.2667 337° Northwest 390 449 25,400 1,080 Climbing Montreal Center
10:22AM 49.4333 -78.3167 342° North 360 414 26,600 960 Climbing Montreal Center
10:23AM 49.5333 -78.4000 332° Northwest 400 460 27,400 780 Climbing Montreal Center
10:24AM 49.6500 -78.4833 335° Northwest 410 472 28,200 840 Climbing Montreal Center
10:25AM 49.7500 -78.5500 337° Northwest 400 460 29,100 900 Climbing Montreal Center
10:26AM 49.8500 -78.6333 332° Northwest 410 472 30,000 900 Climbing Montreal Center
10:27AM 49.9500 -78.6833 342° North 430 495 30,900 840 Climbing Montreal Center
10:28AM 50.0667 -78.7667 335° Northwest 400 460 31,700 480 Climbing Montreal Center
10:29AM 50.1500 -78.8500 327° Northwest 400 460 31,900 60 Climbing Montreal Center
10:30AM 50.2500 -78.9167 337° Northwest 410 472 31,900  Level Montreal Center
10:31AM 50.3667 -79.0000 336° Northwest 420 483 31,900  Level Montreal Center
10:32AM 50.4667 -79.0667 337° Northwest 400 460 31,900  Level Montreal Center
10:33AM 50.5833 -79.1500 336° Northwest 430 495 31,900  Level Montreal Center
10:34AM 50.6833 -79.2333 332° Northwest 420 483 31,900  Level Montreal Center
10:35AM 50.7833 -79.3000 337° Northwest 410 472 31,900  Level Montreal Center
10:36AM 50.9000 -79.3833 336° Northwest 420 483 31,900  Level Montreal Center
10:37AM 51.0000 -79.4667 332° Northwest 420 483 31,900  Level Montreal Center
10:38AM 51.1167 -79.5333 340° North 420 483 31,900  Level Montreal Center
10:39AM 51.2167 -79.6167 332° Northwest 410 472 31,900  Level Montreal Center
10:40AM 51.3333 -79.7167 332° Northwest 410 472 31,900  Level Montreal Center
10:41AM 51.4333 -79.7667 343° North 410 472 31,900  Level Montreal Center
10:42AM 51.5333 -79.8667 328° Northwest 420 483 31,900  Level Montreal Center
10:43AM 51.6333 -79.9333 338° Northwest 420 483 31,900  Level Montreal Center
10:44AM 51.7333 -80.0167 333° Northwest 420 483 31,900  Level Montreal Center
10:45AM 51.8333 -80.1000 333° Northwest 410 472 31,900  Level Montreal Center
10:46AM 51.9500 -80.2000 332° Northwest 420 483 31,900  Level Montreal Center
10:47AM 52.0500 -80.2667 338° Northwest 410 472 31,900  Level Montreal Center
10:48AM 52.1667 -80.3500 336° Northwest 410 472 31,900  Level Montreal Center
10:49AM 52.2667 -80.4167 338° Northwest 420 483 31,900  Level Montreal Center
10:50AM 52.3667 -80.5167 329° Northwest 420 483 31,900  Level Montreal Center
10:51AM 52.4833 -80.6167 332° Northwest 420 483 31,900  Level Montreal Center
10:52AM 52.5833 -80.6833 338° Northwest 430 495 31,900  Level Montreal Center
10:53AM 52.6833 -80.7667 333° Northwest 420 483 31,900  Level Montreal Center
10:54AM 52.8000 -80.8667 333° Northwest 420 483 31,900  Level Montreal Center
10:55AM 52.9000 -80.9333 338° Northwest 420 483 31,900  Level Montreal Center
10:56AM 53.0167 -81.0333 333° Northwest 430 495 31,900  Level Montreal Center
10:57AM 53.1167 -81.1333 329° Northwest 420 483 31,900  Level Montreal Center
10:58AM 53.2167 -81.2167 333° Northwest 420 483 31,900  Level Montreal Center
10:59AM 53.3000 -81.3167 324° Northwest 420 483 31,900  Level Montreal Center
11:00AM 53.4167 -81.4167 333° Northwest 420 483 31,900  Level Montreal Center
11:01AM 53.5167 -81.5167 329° Northwest 420 483 31,900  Level Montreal Center
11:02AM 53.6167 -81.6167 329° Northwest 410 472 31,900  Level Montreal Center
11:03AM 53.7167 -81.7167 329° Northwest 410 472 31,900  Level Montreal Center
11:04AM 53.8000 -81.8167 325° Northwest 410 472 31,900  Level Montreal Center
11:05AM 53.9000 -81.9167 330° Northwest 410 472 31,900  Level Montreal Center
11:06AM 54.0167 -82.0167 333° Northwest 410 472 31,900  Level Montreal Center
11:07AM 54.1167 -82.1167 330° Northwest 410 472 31,900  Level Montreal Center
11:08AM 54.2000 -82.2167 325° Northwest 410 472 31,900  Level Montreal Center
11:09AM 54.3000 -82.3167 330° Northwest 410 472 31,900  Level Montreal Center
11:10AM 54.4000 -82.4167 330° Northwest 410 472 31,900  Level Montreal Center
11:11AM 54.5167 -82.5167 334° Northwest 410 472 31,900  Level Montreal Center
11:12AM 54.6000 -82.6333 321° Northwest 410 472 31,900  Level Montreal Center
11:13AM 54.7000 -82.7000 339° North 410 472 31,900  Level Montreal Center
11:14AM 54.8000 -82.8000 330° Northwest 400 460 31,900  Level Montreal Center
11:15AM 54.9000 -82.9167 326° Northwest 410 472 31,900  Level Montreal Center
11:16AM 54.9833 -83.0167 325° Northwest 410 472 31,900  Level Montreal Center
11:17AM 55.1000 -83.1167 334° Northwest 410 472 31,900  Level Montreal Center
11:18AM 55.2000 -83.2000 335° Northwest 410 472 31,900  Level Montreal Center
11:19AM 55.3167 -83.3000 334° Northwest 420 483 31,900  Level Montreal Center
11:20AM 55.4000 -83.4167 322° Northwest 420 483 31,900  Level Montreal Center
11:21AM 55.5167 -83.5167 334° Northwest 420 483 31,900  Level Montreal Center
11:22AM 55.6167 -83.6000 335° Northwest 420 483 32,000  Climbing Montreal Center
11:23AM 55.7167 -83.7167 327° Northwest 410 472 31,900 -60 Descending Montreal Center
11:24AM 55.8000 -83.8167 326° Northwest 410 472 31,900  Level Montreal Center
11:25AM 55.9333 -83.8000 North 410 472 31,900  Level Edmonton Center
11:26AM 56.0167 -83.9167 322° Northwest 410 472 31,900  Level Edmonton Center
11:27AM 56.1000 -84.0167 326° Northwest 400 460 31,900  Level Edmonton Center
11:29AM 56.2416 -84.1574 331° Northwest  Level FlightAware Approximate
11:36AM 56.9187 -84.8308 332° Northwest  Level FlightAware Approximate
11:37AM 57.0154 -84.9283 331° Northwest  Level FlightAware Approximate
11:38AM 57.1120 -85.0262 331° Northwest  Level FlightAware Approximate
11:39AM 57.2085 -85.1247 331° Northwest  Level FlightAware Approximate
11:40AM 57.3049 -85.2237 331° Northwest  Level FlightAware Approximate
11:41AM 57.4013 -85.3233 331° Northwest  Level FlightAware Approximate
11:42AM 57.4976 -85.4233 331° Northwest  Level FlightAware Approximate
11:43AM 57.5938 -85.5239 331° Northwest  Level FlightAware Approximate
11:44AM 57.6899 -85.6250 331° Northwest  Level FlightAware Approximate
11:45AM 57.7859 -85.7267 331° Northwest  Level FlightAware Approximate
11:46AM 57.8819 -85.8289 330° Northwest  Level FlightAware Approximate
11:47AM 57.9778 -85.9316 330° Northwest  Level FlightAware Approximate
11:48AM 58.0736 -86.0349 330° Northwest  Level FlightAware Approximate
11:49AM 58.1693 -86.1388 330° Northwest  Level FlightAware Approximate
11:50AM 58.2649 -86.2432 330° Northwest  Level FlightAware Approximate
11:51AM 58.3605 -86.3482 330° Northwest  Level FlightAware Approximate
11:52AM 58.4559 -86.4537 330° Northwest  Level FlightAware Approximate
11:53AM 58.5513 -86.5598 330° Northwest  Level FlightAware Approximate
11:54AM 58.6465 -86.6665 330° Northwest  Level FlightAware Approximate
11:55AM 58.7417 -86.7738 330° Northwest  Level FlightAware Approximate
11:56AM 58.8368 -86.8817 330° Northwest  Level FlightAware Approximate
11:57AM 58.9319 -86.9901 330° Northwest  Level FlightAware Approximate
11:58AM 59.0268 -87.0992 329° Northwest  Level FlightAware Approximate
11:59AM 59.1216 -87.2089 329° Northwest  Level FlightAware Approximate
12:00PM 59.2163 -87.3192 329° Northwest  Level FlightAware Approximate
12:01PM 59.3110 -87.4300 329° Northwest  Level FlightAware Approximate
12:02PM 59.4055 -87.5415 329° Northwest  Level FlightAware Approximate
12:03PM 59.5000 -87.6537 329° Northwest  Level FlightAware Approximate
12:04PM 59.5943 -87.7664 329° Northwest  Level FlightAware Approximate
12:05PM 59.6885 -87.8802 328° Northwest  Level FlightAware Approximate
12:06PM 59.7823 -87.9953 328° Northwest  Level FlightAware Approximate
12:07PM 59.8761 -88.1109 328° Northwest  Level FlightAware Approximate
12:08PM 59.9697 -88.2272 328° Northwest  Level FlightAware Approximate
12:09PM 60.0633 -88.3442 328° Northwest  Level FlightAware Approximate
12:10PM 60.1567 -88.4619 328° Northwest  Level FlightAware Approximate
12:11PM 60.2500 -88.5802 328° Northwest  Level FlightAware Approximate
12:12PM 60.3433 -88.6992 328° Northwest  Level FlightAware Approximate
12:13PM 60.4364 -88.8188 328° Northwest  Level FlightAware Approximate
12:14PM 60.5294 -88.9392 328° Northwest  Level FlightAware Approximate
12:15PM 60.6223 -89.0602 327° Northwest  Level FlightAware Approximate
12:16PM 60.7151 -89.1820 327° Northwest  Level FlightAware Approximate
12:17PM 60.8080 -89.3038 328° Northwest  Level FlightAware Approximate
12:18PM 60.9010 -89.4257 328° Northwest  Level FlightAware Approximate
12:19PM 60.9939 -89.5482 327° Northwest  Level FlightAware Approximate
12:20PM 61.0867 -89.6714 327° Northwest  Level FlightAware Approximate
12:21PM 61.1793 -89.7953 327° Northwest  Level FlightAware Approximate
12:22PM 61.2719 -89.9200 327° Northwest  Level FlightAware Approximate
12:23PM 61.3643 -90.0454 327° Northwest  Level FlightAware Approximate
12:24PM 61.4567 -90.1716 327° Northwest  Level FlightAware Approximate
12:25PM 61.5489 -90.2985 327° Northwest  Level FlightAware Approximate
12:26PM 61.6410 -90.4262 327° Northwest  Level FlightAware Approximate
12:27PM 61.7329 -90.5546 327° Northwest  Level FlightAware Approximate
12:28PM 61.8248 -90.6838 326° Northwest  Level FlightAware Approximate
12:29PM 61.9169 -90.8126 327° Northwest  Level FlightAware Approximate
12:30PM 62.0095 -90.9401 327° Northwest  Level FlightAware Approximate
12:31PM 62.1010 -91.0716 326° Northwest  Level FlightAware Approximate
12:32PM 62.1922 -91.2042 326° Northwest  Level FlightAware Approximate
12:33PM 62.2834 -91.3376 326° Northwest  Level FlightAware Approximate
12:34PM 62.3744 -91.4718 326° Northwest  Level FlightAware Approximate
12:35PM 62.4653 -91.6068 326° Northwest  Level FlightAware Approximate
12:36PM 62.5560 -91.7427 325° Northwest  Level FlightAware Approximate
12:37PM 62.6466 -91.8794 325° Northwest  Level FlightAware Approximate
12:38PM 62.7371 -92.0169 325° Northwest  Level FlightAware Approximate
12:39PM 62.8275 -92.1553 325° Northwest  Level FlightAware Approximate
12:40PM 62.9177 -92.2945 325° Northwest  Level FlightAware Approximate
12:41PM 63.0078 -92.4346 325° Northwest  Level FlightAware Approximate
12:42PM 63.0977 -92.5755 325° Northwest  Level FlightAware Approximate
12:43PM 63.1875 -92.7173 325° Northwest  Level FlightAware Approximate
12:44PM 63.2772 -92.8601 324° Northwest  Level FlightAware Approximate
12:45PM 63.3663 -93.0047 323° Northwest  Level FlightAware Approximate
12:46PM 63.4548 -93.1521 323° Northwest  Level FlightAware Approximate
12:47PM 63.5453 -93.2930 326° Northwest  Level FlightAware Approximate
12:48PM 63.6340 -93.4406 323° Northwest  Level FlightAware Approximate
12:49PM 63.7223 -93.5896 323° Northwest  Level FlightAware Approximate
12:50PM 63.8105 -93.7395 323° Northwest  Level FlightAware Approximate
12:51PM 63.8975 -93.8934 322° Northwest  Level FlightAware Approximate
12:52PM 63.9843 -94.0484 322° Northwest  Level FlightAware Approximate
12:53PM 64.0716 -94.2024 324° Northwest  Level FlightAware Approximate
12:54PM 64.1609 -94.3507 324° Northwest  Level FlightAware Approximate
12:55PM 64.2500 -94.5001 319° Northwest  Level FlightAware Approximate
12:56PM 64.3335 -94.6662 319° Northwest  Level FlightAware Approximate
12:57PM 64.4168 -94.8334 319° Northwest  Level FlightAware Approximate
12:58PM 64.4984 -95.0057 317° Northwest  Level FlightAware Approximate
12:59PM 64.5804 -95.1771 320° Northwest  Level FlightAware Approximate
01:00PM 64.6642 -95.3445 320° Northwest  Level FlightAware Approximate
01:01PM 64.7489 -95.5101 321° Northwest  Level FlightAware Approximate
01:02PM 64.8350 -95.6718 321° Northwest  Level FlightAware Approximate
01:03PM 64.9118 -95.8570 320° Northwest  Level FlightAware Approximate
01:04PM 64.9960 -96.0253 320° Northwest  Level FlightAware Approximate
01:05PM 65.0167 -96.0667 320° Northwest  Level FlightAware Approximate
01:06PM 65.0167 -96.0667 320° Northwest  Level FlightAware Approximate
01:07PM 65.0167 -96.0667 320° Northwest  Level FlightAware Approximate
01:08PM 65.0167 -96.0667 320° Northwest  Level FlightAware Approximate
01:09PM 65.0167 -96.0667 320° Northwest  Level FlightAware Approximate
01:10PM 65.0167 -96.0667 320° Northwest  Level FlightAware Approximate
01:11PM 65.0167 -96.0667 320° Northwest  Level FlightAware Approximate
01:12PM 65.0167 -96.0667 320° Northwest  Level FlightAware Approximate
01:13PM 65.0167 -96.0667 320° Northwest  Level FlightAware Approximate
01:14PM 65.0167 -96.0667 320° Northwest  Level FlightAware Approximate
01:15PM 65.0167 -96.0667 320° Northwest  Level FlightAware Approximate
01:16PM 65.0167 -96.0667 320° Northwest  Level FlightAware Approximate
01:17PM 65.0167 -96.0667 320° Northwest  Level FlightAware Approximate
01:18PM 65.0167 -96.0667 320° Northwest  Level FlightAware Approximate